createdAt,value
2023-05-20T00:01:00.526Z,101765.83
2023-05-20T00:03:33.123Z,101776.64
2023-05-20T00:06:05.698Z,101775.54
2023-05-20T00:08:38.049Z,101774.61
2023-05-20T00:11:10.337Z,101768.00
2023-05-20T00:13:42.700Z,101766.63
2023-05-20T00:16:15.567Z,101764.41
2023-05-20T00:18:48.143Z,101764.88
2023-05-20T00:21:20.617Z,101744.77
2023-05-20T00:23:52.943Z,101766.02
2023-05-20T00:26:25.277Z,101764.69
2023-05-20T00:28:59.363Z,101759.85
2023-05-20T00:31:31.649Z,101762.42
2023-05-20T00:34:03.937Z,101748.80
2023-05-20T00:36:36.652Z,101745.61
2023-05-20T00:39:08.873Z,101754.81
2023-05-20T00:41:41.397Z,101756.35
2023-05-20T00:44:13.993Z,101754.20
2023-05-20T00:46:46.382Z,101755.02
2023-05-20T00:49:19.085Z,101759.69
2023-05-20T00:51:51.587Z,101751.88
2023-05-20T00:54:24.831Z,101751.83
2023-05-20T00:56:58.224Z,101751.69
2023-05-20T00:59:30.693Z,101754.34
2023-05-20T01:02:03.040Z,101749.18
2023-05-20T01:04:35.748Z,101747.83
2023-05-20T01:07:09.200Z,101748.70
2023-05-20T01:09:41.498Z,101753.23
2023-05-20T01:12:17.955Z,101751.91
2023-05-20T01:14:56.666Z,101747.74
2023-05-20T01:17:38.054Z,101745.13
2023-05-20T01:20:13.422Z,101740.88
2023-05-20T01:22:54.034Z,101740.96
2023-05-20T01:25:26.842Z,101736.33
2023-05-20T01:27:59.884Z,101736.54
2023-05-20T01:30:36.790Z,101727.94
2023-05-20T01:33:13.614Z,101742.02
2023-05-20T01:35:46.459Z,101746.02
2023-05-20T01:38:20.819Z,101745.90
2023-05-20T01:40:55.159Z,101743.86
2023-05-20T01:43:28.817Z,101742.80
2023-05-20T01:46:03.076Z,101739.20
2023-05-20T01:48:35.841Z,101737.22
2023-05-20T01:51:08.395Z,101735.79
2023-05-20T01:53:42.778Z,101735.88
2023-05-20T01:56:15.758Z,101733.67
2023-05-20T01:58:48.117Z,101711.73
2023-05-20T02:01:20.717Z,101729.64
2023-05-20T02:03:53.178Z,101726.98
2023-05-20T02:06:25.806Z,101728.44
2023-05-20T02:08:58.609Z,101726.53
2023-05-20T02:11:30.927Z,101726.94
2023-05-20T02:14:03.292Z,101717.36
2023-05-20T02:16:35.937Z,101721.90
2023-05-20T02:19:12.966Z,101704.70
2023-05-20T02:21:47.158Z,101721.73
2023-05-20T02:24:21.182Z,101721.09
2023-05-20T02:26:55.020Z,101719.40
2023-05-20T02:29:27.381Z,101716.59
2023-05-20T02:31:59.806Z,101706.58
2023-05-20T02:34:34.178Z,101722.19
2023-05-20T02:37:06.791Z,101719.13
2023-05-20T02:39:39.304Z,101723.84
2023-05-20T02:42:12.265Z,101728.60
2023-05-20T02:44:44.789Z,101726.75
2023-05-20T02:47:18.366Z,101732.14
2023-05-20T02:49:51.020Z,101729.96
2023-05-20T02:52:23.931Z,101736.65
2023-05-20T02:54:56.547Z,101733.25
2023-05-20T02:57:29.154Z,101735.83
2023-05-20T03:00:01.848Z,101736.89
2023-05-20T03:02:34.358Z,101739.02
2023-05-20T03:05:08.122Z,101737.65
2023-05-20T03:07:40.946Z,101745.02
2023-05-20T03:10:14.182Z,101748.37
2023-05-20T03:12:46.746Z,101745.65
2023-05-20T03:15:19.346Z,101743.89
2023-05-20T03:17:51.781Z,101720.58
2023-05-20T03:20:24.485Z,101751.73
2023-05-20T03:22:57.490Z,101753.52
2023-05-20T03:25:29.987Z,101750.42
2023-05-20T03:28:02.604Z,101752.35
2023-05-20T03:30:34.997Z,101746.55
2023-05-20T03:33:07.792Z,101753.54
2023-05-20T03:35:40.439Z,101756.01
2023-05-20T03:38:12.952Z,101758.94
2023-05-20T03:40:45.820Z,101759.13
2023-05-20T03:43:20.048Z,101758.60
2023-05-20T03:45:53.001Z,101758.69
2023-05-20T03:48:26.055Z,101745.17
2023-05-20T03:50:59.265Z,101757.92
2023-05-20T03:53:32.026Z,101763.92
2023-05-20T03:56:04.808Z,101764.80
2023-05-20T03:58:38.795Z,101766.96
2023-05-20T04:01:13.339Z,101769.59
2023-05-20T04:03:45.871Z,101763.54
2023-05-20T04:06:18.426Z,101774.08
2023-05-20T04:08:50.905Z,101772.91
2023-05-20T04:11:24.616Z,101779.59
2023-05-20T04:13:57.049Z,101781.79
2023-05-20T04:16:30.441Z,101776.85
2023-05-20T04:19:02.932Z,101771.00
2023-05-20T04:21:35.739Z,101771.09
2023-05-20T04:24:09.284Z,101770.66
2023-05-20T04:26:41.445Z,101766.61
2023-05-20T04:29:16.184Z,101772.59
2023-05-20T04:31:47.414Z,101772.33
2023-05-20T04:34:20.437Z,101777.39
2023-05-20T04:36:52.586Z,101774.47
2023-05-20T04:39:25.206Z,101777.13
2023-05-20T04:41:58.266Z,101777.47
2023-05-20T04:44:31.123Z,101775.84
2023-05-20T04:47:04.530Z,101776.62
2023-05-20T04:49:36.962Z,101768.46
2023-05-20T04:52:10.024Z,101771.76
2023-05-20T04:54:45.259Z,101769.84
2023-05-20T04:57:21.073Z,101774.92
2023-05-20T04:59:53.861Z,101773.36
2023-05-20T05:02:26.193Z,101771.30
2023-05-20T05:04:59.806Z,101754.20
2023-05-20T05:07:32.236Z,101770.04
2023-05-20T05:10:04.886Z,101758.75
2023-05-20T05:12:37.659Z,101771.19
2023-05-20T05:15:12.274Z,101771.64
2023-05-20T05:17:45.043Z,101772.40
2023-05-20T05:20:17.857Z,101770.89
2023-05-20T05:22:51.586Z,101770.86
2023-05-20T05:25:24.450Z,101771.23
2023-05-20T05:27:56.546Z,101773.93
2023-05-20T05:30:29.411Z,101762.76
2023-05-20T05:33:01.787Z,101777.47
2023-05-20T05:35:34.485Z,101771.55
2023-05-20T05:38:07.004Z,101773.84
2023-05-20T05:40:40.121Z,101773.94
2023-05-20T05:43:13.158Z,101772.84
2023-05-20T05:45:46.982Z,101777.91
2023-05-20T05:48:19.698Z,101775.64
2023-05-20T05:50:51.876Z,101778.05
2023-05-20T05:53:24.659Z,101766.59
2023-05-20T05:55:57.756Z,101771.02
2023-05-20T05:58:30.658Z,101770.16
2023-05-20T06:01:03.149Z,101773.17
2023-05-20T06:03:35.509Z,101771.28
2023-05-20T06:06:07.791Z,101774.02
2023-05-20T06:08:40.437Z,101778.73
2023-05-20T06:11:13.297Z,101777.77
2023-05-20T06:13:45.535Z,101777.17
2023-05-20T06:16:18.491Z,101776.70
2023-05-20T06:18:51.375Z,101772.33
2023-05-20T06:21:23.972Z,101776.42
2023-05-20T06:23:56.661Z,101777.02
2023-05-20T06:26:29.293Z,101779.77
2023-05-20T06:29:01.510Z,101790.43
2023-05-20T06:31:34.349Z,101787.75
2023-05-20T06:34:06.782Z,101789.03
2023-05-20T06:36:39.609Z,101786.95
2023-05-20T06:39:12.771Z,101778.12
2023-05-20T06:41:47.781Z,101788.89
2023-05-20T06:44:30.570Z,101787.10
2023-05-20T06:47:27.160Z,101786.02
2023-05-20T06:49:59.439Z,101783.56
2023-05-20T06:52:31.522Z,101774.52
2023-05-20T06:55:04.176Z,101776.06
2023-05-20T06:57:36.951Z,101773.77
2023-05-20T07:00:12.240Z,101771.78
2023-05-20T07:02:46.727Z,101770.73
2023-05-20T07:05:20.213Z,101767.04
2023-05-20T07:07:52.533Z,101761.06
2023-05-20T07:10:24.793Z,101758.04
2023-05-20T07:12:58.419Z,101742.95
2023-05-20T07:15:31.219Z,101751.52
2023-05-20T07:18:03.735Z,101749.90
2023-05-20T07:20:36.240Z,101747.43
2023-05-20T07:23:13.939Z,101741.83
2023-05-20T07:25:50.693Z,101739.29
2023-05-20T07:28:23.855Z,101739.05
2023-05-20T07:30:57.987Z,101737.16
2023-05-20T07:33:33.048Z,101721.48
2023-05-20T07:36:05.455Z,101737.77
2023-05-20T07:38:38.549Z,101737.09
2023-05-20T07:41:13.412Z,101738.61
2023-05-20T07:43:45.925Z,101739.22
2023-05-20T07:46:19.988Z,101744.98
2023-05-20T07:48:52.965Z,101739.09
2023-05-20T07:51:25.518Z,101736.10
2023-05-20T07:53:58.449Z,101730.23
2023-05-20T07:56:32.102Z,101736.06
2023-05-20T07:59:05.031Z,101734.83
2023-05-20T08:01:43.815Z,101740.40
2023-05-20T08:04:16.902Z,101724.96
2023-05-20T08:06:49.757Z,101734.25
2023-05-20T08:09:29.294Z,101723.27
2023-05-20T08:12:02.566Z,101708.86
2023-05-20T08:14:34.926Z,101713.04
2023-05-20T08:17:07.474Z,101709.79
2023-05-20T08:19:40.001Z,101713.61
2023-05-20T08:22:13.061Z,101716.32
2023-05-20T08:24:45.607Z,101717.48
2023-05-20T08:27:18.112Z,101718.10
2023-05-20T08:29:50.441Z,101718.77
2023-05-20T08:32:22.666Z,101710.40
2023-05-20T08:34:55.035Z,101710.44
2023-05-20T08:37:27.315Z,101710.48
2023-05-20T08:39:59.530Z,101711.56
2023-05-20T08:42:32.065Z,101713.70
2023-05-20T08:45:06.239Z,101713.17
2023-05-20T08:47:40.273Z,101708.92
2023-05-20T08:50:15.177Z,101707.27
2023-05-20T08:52:49.015Z,101704.77
2023-05-20T08:55:27.055Z,101704.60
2023-05-20T08:57:59.591Z,101704.11
2023-05-20T09:00:32.712Z,101701.98
2023-05-20T09:03:05.381Z,101701.38
2023-05-20T09:05:38.156Z,101702.18
2023-05-20T09:08:12.406Z,101703.90
2023-05-20T09:10:45.247Z,101708.81
2023-05-20T09:13:17.411Z,101713.18
2023-05-20T09:15:49.779Z,101715.20
2023-05-20T09:18:22.141Z,101712.20
2023-05-20T09:20:54.783Z,101715.91
2023-05-20T09:23:28.035Z,101716.61
2023-05-20T09:26:03.477Z,101712.59
2023-05-20T09:28:38.487Z,101713.13
2023-05-20T09:31:11.025Z,101701.67
2023-05-20T09:33:43.502Z,101710.20
2023-05-20T09:36:16.852Z,101707.05
2023-05-20T09:38:50.471Z,101706.91
2023-05-20T09:41:25.977Z,101705.31
2023-05-20T09:43:58.489Z,101708.34
2023-05-20T09:46:32.190Z,101703.94
2023-05-20T09:49:06.815Z,101706.91
2023-05-20T09:51:39.918Z,101704.58
2023-05-20T09:54:13.954Z,101702.34
2023-05-20T09:56:47.552Z,101701.15
2023-05-20T09:59:23.016Z,101700.00
2023-05-20T10:01:56.087Z,101697.90
2023-05-20T10:04:31.137Z,101696.30
2023-05-20T10:07:30.481Z,101697.19
2023-05-20T10:10:19.991Z,101695.43
2023-05-20T10:13:00.210Z,101688.45
2023-05-20T10:15:42.838Z,101689.82
2023-05-20T10:18:26.997Z,101680.64
2023-05-20T10:20:59.225Z,101685.94
2023-05-20T10:23:33.302Z,101682.04
2023-05-20T10:26:09.344Z,101671.06
2023-05-20T10:28:44.328Z,101675.33
2023-05-20T10:31:22.131Z,101668.13
2023-05-20T10:33:56.221Z,101671.44
2023-05-20T10:36:31.509Z,101671.34
2023-05-20T10:39:05.450Z,101667.16
2023-05-20T10:41:37.466Z,101665.01
2023-05-20T10:44:10.191Z,101654.52
2023-05-20T10:49:27.094Z,101660.91
2023-05-20T10:52:03.139Z,101665.38
2023-05-20T10:54:45.403Z,101662.92
2023-05-20T10:57:17.863Z,101663.83
2023-05-20T10:59:51.370Z,101663.27
2023-05-20T11:02:27.211Z,101663.04
2023-05-20T11:05:00.888Z,101661.58
2023-05-20T11:07:34.210Z,101659.34
2023-05-20T11:10:11.579Z,101660.79
2023-05-20T11:12:44.197Z,101656.11
2023-05-20T11:15:16.975Z,101651.11
2023-05-20T11:17:57.240Z,101651.20
2023-05-20T11:20:30.359Z,101639.10
2023-05-20T11:23:03.507Z,101625.72
2023-05-20T11:25:36.739Z,101631.67
2023-05-20T11:28:13.636Z,101623.85
2023-05-20T11:30:46.538Z,101619.08
2023-05-20T11:33:19.977Z,101615.20
2023-05-20T11:35:54.148Z,101614.39
2023-05-20T11:38:28.030Z,101603.63
2023-05-20T11:41:00.430Z,101612.85
2023-05-20T11:43:35.059Z,101612.16
2023-05-20T11:46:07.945Z,101614.89
2023-05-20T11:48:42.107Z,101618.04
2023-05-20T11:51:14.425Z,101621.81
2023-05-20T11:53:49.665Z,101615.91
2023-05-20T11:56:23.180Z,101612.53
2023-05-20T11:58:57.954Z,101609.04
2023-05-20T12:01:29.255Z,101608.39
2023-05-20T12:04:02.148Z,101608.74
2023-05-20T12:06:34.916Z,101609.72
2023-05-20T12:09:08.909Z,101608.61
2023-05-20T12:11:42.447Z,101611.52
2023-05-20T12:14:14.561Z,101615.70
2023-05-20T12:16:46.873Z,101610.20
2023-05-20T12:19:19.828Z,101604.56
2023-05-20T12:21:52.869Z,101576.17
2023-05-20T12:24:25.273Z,101598.70
2023-05-20T12:26:57.976Z,101588.31
2023-05-20T12:29:29.953Z,101593.59
2023-05-20T12:32:02.814Z,101588.82
2023-05-20T12:34:36.183Z,101585.09
2023-05-20T12:37:08.748Z,101578.30
2023-05-20T12:39:40.903Z,101573.17
2023-05-20T12:42:13.341Z,101573.27
2023-05-20T12:44:45.560Z,101564.75
2023-05-20T12:47:17.877Z,101561.48
2023-05-20T12:49:50.095Z,101562.96
2023-05-20T12:52:23.092Z,101562.05
2023-05-20T12:54:56.776Z,101561.42
2023-05-20T12:57:29.378Z,101561.70
2023-05-20T13:00:01.520Z,101558.12
2023-05-20T13:02:34.203Z,101558.02
2023-05-20T13:05:07.598Z,101551.86
2023-05-20T13:07:40.424Z,101551.30
2023-05-20T13:10:13.499Z,101553.19
2023-05-20T13:12:46.466Z,101553.16
2023-05-20T13:15:18.960Z,101547.27
2023-05-20T13:17:51.262Z,101550.95
2023-05-20T13:20:23.828Z,101550.15
2023-05-20T13:22:56.185Z,101542.77
2023-05-20T13:25:29.236Z,101544.64
2023-05-20T13:28:01.853Z,101537.40
2023-05-20T13:30:34.414Z,101529.23
2023-05-20T13:33:07.378Z,101530.34
2023-05-20T13:35:39.669Z,101532.98
2023-05-20T13:38:12.083Z,101534.33
2023-05-20T13:40:44.555Z,101525.52
2023-05-20T13:43:16.844Z,101520.23
2023-05-20T13:45:49.377Z,101520.41
2023-05-20T13:48:22.203Z,101516.12
2023-05-20T13:50:54.319Z,101517.27
2023-05-20T13:53:26.807Z,101513.03
2023-05-20T13:55:59.164Z,101512.16
2023-05-20T13:58:31.655Z,101509.15
2023-05-20T14:01:05.048Z,101506.34
2023-05-20T14:03:38.577Z,101503.73
2023-05-20T14:06:11.090Z,101496.52
2023-05-20T14:08:43.683Z,101484.63
2023-05-20T14:11:15.994Z,101488.98
2023-05-20T14:13:48.286Z,101491.82
2023-05-20T14:16:20.668Z,101494.11
2023-05-20T14:18:53.185Z,101494.76
2023-05-20T14:21:25.473Z,101493.85
2023-05-20T14:23:59.024Z,101490.40
2023-05-20T14:26:31.360Z,101489.05
2023-05-20T14:29:03.954Z,101488.51
2023-05-20T14:31:36.014Z,101483.80
2023-05-20T14:34:08.828Z,101485.63
2023-05-20T14:36:41.279Z,101484.48
2023-05-20T14:39:13.829Z,101479.20
2023-05-20T14:41:46.268Z,101476.35
2023-05-20T14:44:18.490Z,101472.95
2023-05-20T14:46:50.928Z,101468.98
2023-05-20T14:49:23.548Z,101469.34
2023-05-20T14:51:56.064Z,101471.67
2023-05-20T14:54:28.495Z,101467.68
2023-05-20T14:57:01.132Z,101465.49
2023-05-20T14:59:33.318Z,101471.91
2023-05-20T15:02:06.082Z,101466.28
2023-05-20T15:04:39.545Z,101460.39
2023-05-20T15:07:11.881Z,101463.13
2023-05-20T15:09:44.894Z,101456.31
2023-05-20T15:12:17.227Z,101453.80
2023-05-20T15:14:49.639Z,101455.45
2023-05-20T15:17:22.024Z,101449.52
2023-05-20T15:19:54.339Z,101444.59
2023-05-20T15:22:26.704Z,101435.44
2023-05-20T15:24:59.141Z,101431.50
2023-05-20T15:27:31.473Z,101427.24
2023-05-20T15:30:03.829Z,101422.83
2023-05-20T15:32:36.163Z,101417.77
2023-05-20T15:35:10.056Z,101414.91
2023-05-20T15:37:42.833Z,101408.08
2023-05-20T15:40:17.236Z,101410.41
2023-05-20T15:42:49.503Z,101412.80
2023-05-20T15:45:22.537Z,101401.48
2023-05-20T15:47:55.038Z,101407.45
2023-05-20T15:50:28.664Z,101406.34
2023-05-20T15:53:01.442Z,101403.41
2023-05-20T15:55:35.381Z,101405.88
2023-05-20T15:58:08.259Z,101402.61
2023-05-20T16:00:41.087Z,101405.72
2023-05-20T16:03:13.755Z,101400.95
2023-05-20T16:05:46.392Z,101394.20
2023-05-20T16:08:20.931Z,101396.08
2023-05-20T16:10:52.150Z,101386.30
2023-05-20T16:13:24.307Z,101385.45
2023-05-20T16:15:57.858Z,101376.00
2023-05-20T16:18:30.320Z,101387.84
2023-05-20T16:21:02.726Z,101385.40
2023-05-20T16:23:35.952Z,101385.92
2023-05-20T16:26:08.246Z,101382.36
2023-05-20T16:28:40.474Z,101376.90
2023-05-20T16:31:12.824Z,101380.90
2023-05-20T16:33:45.111Z,101379.48
2023-05-20T16:36:17.887Z,101377.85
2023-05-20T16:38:50.290Z,101373.98
2023-05-20T16:41:24.164Z,101371.18
2023-05-20T16:43:56.494Z,101370.43
2023-05-20T16:46:29.000Z,101373.04
2023-05-20T16:49:01.375Z,101372.94
2023-05-20T16:51:33.920Z,101377.98
2023-05-20T16:54:06.524Z,101374.99
2023-05-20T16:56:39.083Z,101372.76
2023-05-20T16:59:14.640Z,101364.14
2023-05-20T17:01:47.220Z,101367.80
2023-05-20T17:04:19.563Z,101364.34
2023-05-20T17:06:52.067Z,101360.05
2023-05-20T17:09:24.403Z,101358.64
2023-05-20T17:11:56.975Z,101358.23
2023-05-20T17:14:29.253Z,101363.55
2023-05-20T17:17:01.743Z,101360.59
2023-05-20T17:19:34.235Z,101359.15
2023-05-20T17:22:07.005Z,101359.32
2023-05-20T17:24:39.229Z,101358.11
2023-05-20T17:27:11.557Z,101356.95
2023-05-20T17:29:43.708Z,101344.36
2023-05-20T17:32:16.078Z,101354.60
2023-05-20T17:34:48.368Z,101345.38
2023-05-20T17:37:21.144Z,101347.59
2023-05-20T17:39:53.479Z,101345.70
2023-05-20T17:42:26.083Z,101345.42
2023-05-20T17:44:58.403Z,101334.84
2023-05-20T17:47:30.624Z,101343.63
2023-05-20T17:50:03.139Z,101345.27
2023-05-20T17:52:35.343Z,101346.21
2023-05-20T17:55:09.744Z,101343.08
2023-05-20T17:57:42.423Z,101343.73
2023-05-20T18:00:15.800Z,101341.52
2023-05-20T18:02:48.463Z,101338.17
2023-05-20T18:05:21.150Z,101333.45
2023-05-20T18:07:53.461Z,101335.05
2023-05-20T18:10:26.246Z,101331.91
2023-05-20T18:12:58.875Z,101328.94
2023-05-20T18:15:31.260Z,101323.29
2023-05-20T18:18:03.554Z,101320.95
2023-05-20T18:20:35.908Z,101319.00
2023-05-20T18:23:08.397Z,101315.44
2023-05-20T18:25:42.388Z,101311.88
2023-05-20T18:28:15.301Z,101307.69
2023-05-20T18:30:47.495Z,101305.98
2023-05-20T18:33:20.367Z,101307.92
2023-05-20T18:35:54.066Z,101305.73
2023-05-20T18:38:26.805Z,101311.56
2023-05-20T18:40:59.467Z,101315.27
2023-05-20T18:43:31.963Z,101281.48
2023-05-20T18:46:04.663Z,101311.70
2023-05-20T18:48:37.169Z,101313.96
2023-05-20T18:51:09.374Z,101313.55
2023-05-20T18:53:41.626Z,101313.27
2023-05-20T18:56:14.127Z,101315.96
2023-05-20T18:58:46.724Z,101310.03
2023-05-20T19:01:19.324Z,101308.29
2023-05-20T19:03:51.753Z,101306.42
2023-05-20T19:06:23.936Z,101296.44
2023-05-20T19:08:56.331Z,101308.79
2023-05-20T19:11:29.027Z,101316.04
2023-05-20T19:14:02.077Z,101316.92
2023-05-20T19:16:34.667Z,101320.63
2023-05-20T19:19:06.960Z,101319.70
2023-05-20T19:21:41.515Z,101319.25
2023-05-20T19:24:13.788Z,101320.41
2023-05-20T19:26:46.210Z,101318.67
2023-05-20T19:29:18.505Z,101319.19
2023-05-20T19:31:50.658Z,101321.53
2023-05-20T19:34:23.236Z,101321.55
2023-05-20T19:36:56.954Z,101320.44
2023-05-20T19:39:30.229Z,101317.95
2023-05-20T19:42:03.071Z,101303.74
2023-05-20T19:44:35.541Z,101313.81
2023-05-20T19:47:07.974Z,101319.73
2023-05-20T19:49:40.085Z,101322.35
2023-05-20T19:52:12.364Z,101321.82
2023-05-20T19:54:44.754Z,101322.15
2023-05-20T19:57:17.117Z,101319.91
2023-05-20T19:59:50.981Z,101314.84
2023-05-20T20:02:25.201Z,101316.77
2023-05-20T20:04:59.275Z,101321.39
2023-05-20T20:07:32.167Z,101320.04
2023-05-20T20:10:04.556Z,101318.92
2023-05-20T20:12:37.085Z,101319.25
2023-05-20T20:15:11.666Z,101310.33
2023-05-20T20:17:45.462Z,101323.55
2023-05-20T20:20:18.558Z,101317.52
2023-05-20T20:22:50.809Z,101316.40
2023-05-20T20:25:23.493Z,101312.40
2023-05-20T20:27:56.062Z,101323.84
2023-05-20T20:30:28.384Z,101324.45
2023-05-20T20:33:01.344Z,101327.30
2023-05-20T20:35:34.238Z,101314.27
2023-05-20T20:38:09.834Z,101324.56
2023-05-20T20:40:42.861Z,101325.13
2023-05-20T20:43:20.920Z,101309.29
2023-05-20T20:45:56.421Z,101321.52
2023-05-20T20:48:28.826Z,101321.30
2023-05-20T20:51:02.114Z,101318.97
2023-05-20T20:53:34.663Z,101321.06
2023-05-20T20:56:08.366Z,101321.46
2023-05-20T20:58:41.598Z,101323.08
2023-05-20T21:01:17.664Z,101318.41
2023-05-20T21:03:54.472Z,101320.59
2023-05-20T21:06:27.027Z,101318.16
2023-05-20T21:09:03.172Z,101322.36
2023-05-20T21:11:36.317Z,101320.02
2023-05-20T21:14:08.569Z,101320.10
2023-05-20T21:16:42.259Z,101322.05
2023-05-20T21:19:15.946Z,101323.98
2023-05-20T21:21:48.194Z,101318.67
2023-05-20T21:24:21.075Z,101318.19
2023-05-20T21:26:54.162Z,101299.83
2023-05-20T21:29:26.956Z,101315.70
2023-05-20T21:31:59.453Z,101314.81
2023-05-20T21:34:32.176Z,101313.13
2023-05-20T21:37:05.230Z,101313.69
2023-05-20T21:39:38.956Z,101314.50
2023-05-20T21:42:11.000Z,101316.35
2023-05-20T21:44:43.284Z,101312.47
2023-05-20T21:47:16.021Z,101310.71
2023-05-20T21:49:48.704Z,101311.67
2023-05-20T21:52:21.347Z,101310.72
2023-05-20T21:54:53.585Z,101307.58
2023-05-20T21:57:26.112Z,101311.41
2023-05-20T21:59:58.458Z,101309.07
2023-05-20T22:02:32.361Z,101308.81
2023-05-20T22:05:06.669Z,101310.27
2023-05-20T22:07:41.587Z,101307.13
2023-05-20T22:10:12.741Z,101308.09
2023-05-20T22:12:45.829Z,101314.36
2023-05-20T22:15:18.412Z,101310.67
2023-05-20T22:17:51.058Z,101305.92
2023-05-20T22:20:23.644Z,101308.33
2023-05-20T22:22:56.096Z,101305.27
2023-05-20T22:25:28.411Z,101300.19
2023-05-20T22:28:01.419Z,101284.16
2023-05-20T22:30:34.047Z,101283.60
2023-05-20T22:33:06.775Z,101293.12
2023-05-20T22:35:39.185Z,101294.54
2023-05-20T22:38:11.554Z,101297.13
2023-05-20T22:40:43.890Z,101298.48
2023-05-20T22:43:16.648Z,101294.63
2023-05-20T22:45:49.211Z,101293.34
2023-05-20T22:48:23.552Z,101295.43
2023-05-20T22:50:56.132Z,101290.67
2023-05-20T22:53:28.407Z,101275.39
2023-05-20T22:56:00.972Z,101294.52
2023-05-20T22:58:35.778Z,101290.60
2023-05-20T23:01:07.164Z,101288.10
2023-05-20T23:03:40.005Z,101284.31
2023-05-20T23:06:12.757Z,101284.39
2023-05-20T23:08:45.153Z,101282.38
2023-05-20T23:11:17.513Z,101282.92
2023-05-20T23:13:50.149Z,101280.59
2023-05-20T23:16:26.476Z,101282.92
2023-05-20T23:18:59.257Z,101279.23
2023-05-20T23:21:31.754Z,101277.30
2023-05-20T23:24:04.166Z,101274.97
2023-05-20T23:26:37.853Z,101278.27
2023-05-20T23:29:10.594Z,101263.36
2023-05-20T23:31:42.823Z,101271.10
2023-05-20T23:34:15.311Z,101276.00
2023-05-20T23:36:47.764Z,101273.59
2023-05-20T23:39:20.309Z,101271.81
2023-05-20T23:41:52.525Z,101270.23
2023-05-20T23:44:25.050Z,101273.34
2023-05-20T23:46:57.350Z,101275.58
2023-05-20T23:49:29.769Z,101271.56
2023-05-20T23:52:01.946Z,101275.27
2023-05-20T23:54:34.339Z,101277.76
2023-05-20T23:57:10.251Z,101278.16
2023-05-20T23:59:43.176Z,101275.91
